createdAt,value
2022-12-13T00:00:42.110Z,38.90
2022-12-13T00:02:44.888Z,43.58
2022-12-13T00:04:46.634Z,32.45
2022-12-13T00:06:48.867Z,47.42
2022-12-13T00:08:50.456Z,37.80
2022-12-13T00:11:03.093Z,34.13
2022-12-13T00:13:04.605Z,34.08
2022-12-13T00:15:07.015Z,30.27
2022-12-13T00:17:08.568Z,32.08
2022-12-13T00:19:09.994Z,32.90
2022-12-13T00:21:14.552Z,62.33
2022-12-13T00:23:15.972Z,37.05
2022-12-13T00:25:19.849Z,30.13
2022-12-13T00:27:21.270Z,26.27
2022-12-13T00:29:22.751Z,32.95
2022-12-13T00:33:47.461Z,19.95
2022-12-13T00:35:48.903Z,30.88
2022-12-13T00:37:50.387Z,28.92
2022-12-13T00:39:51.958Z,27.15
2022-12-13T00:41:53.420Z,33.45
2022-12-13T00:43:54.850Z,42.22
2022-12-13T00:45:56.353Z,37.10
2022-12-13T00:47:57.780Z,21.48
2022-12-13T00:49:59.290Z,26.48
2022-12-13T00:52:00.839Z,26.92
2022-12-13T00:54:02.465Z,34.33
2022-12-13T00:56:05.212Z,23.75
2022-12-13T00:58:06.701Z,32.53
2022-12-13T01:00:09.437Z,17.77
2022-12-13T01:02:10.906Z,31.40
2022-12-13T01:04:12.860Z,30.13
2022-12-13T01:06:18.468Z,34.10
2022-12-13T01:08:19.965Z,30.15
2022-12-13T01:10:22.254Z,32.00
2022-12-13T01:12:23.961Z,24.95
2022-12-13T01:14:25.985Z,32.03
2022-12-13T01:16:27.527Z,24.40
2022-12-13T01:18:29.060Z,26.88
2022-12-13T01:20:30.563Z,16.52
2022-12-13T01:22:32.011Z,22.17
2022-12-13T01:24:34.354Z,20.67
2022-12-13T01:26:35.813Z,20.27
2022-12-13T01:28:37.250Z,20.60
2022-12-13T01:30:38.785Z,24.98
2022-12-13T01:32:40.306Z,24.33
2022-12-13T01:34:41.755Z,32.92
2022-12-13T01:36:45.756Z,23.30
2022-12-13T01:38:47.352Z,20.55
2022-12-13T01:40:58.762Z,16.95
2022-12-13T01:43:00.632Z,22.83
2022-12-13T01:45:06.270Z,18.58
2022-12-13T01:47:07.781Z,21.27
2022-12-13T01:49:19.157Z,24.05
2022-12-13T01:51:26.554Z,20.35
2022-12-13T01:53:33.455Z,24.05
2022-12-13T01:55:41.653Z,26.55
2022-12-13T01:57:46.003Z,21.98
2022-12-13T01:59:49.078Z,18.77
2022-12-13T02:01:51.271Z,59.25
2022-12-13T02:03:52.794Z,24.70
2022-12-13T02:06:03.358Z,29.20
2022-12-13T02:08:07.673Z,27.48
2022-12-13T02:10:10.373Z,24.60
2022-12-13T02:12:12.726Z,24.77
2022-12-13T02:14:14.183Z,40.65
2022-12-13T02:16:34.802Z,37.55
2022-12-13T02:19:04.394Z,31.42
2022-12-13T02:22:04.957Z,21.13
2022-12-13T02:24:15.414Z,22.83
2022-12-13T02:26:31.819Z,74.78
2022-12-13T02:28:42.389Z,21.35
2022-12-13T02:30:49.933Z,22.90
2022-12-13T02:33:11.705Z,28.23
2022-12-13T02:35:27.979Z,57.47
2022-12-13T02:37:47.988Z,57.35
2022-12-13T02:40:15.588Z,24.23
2022-12-13T02:42:26.098Z,19.10
2022-12-13T02:44:33.015Z,22.60
2022-12-13T02:46:41.007Z,19.83
2022-12-13T02:48:43.421Z,22.65
2022-12-13T02:50:46.339Z,22.65
2022-12-13T02:52:49.063Z,27.27
2022-12-13T02:54:50.512Z,22.80
2022-12-13T02:57:00.269Z,28.63
2022-12-13T02:59:05.104Z,19.85
2022-12-13T03:01:40.203Z,21.27
2022-12-13T03:03:56.067Z,18.35
2022-12-13T03:06:33.322Z,22.45
2022-12-13T03:08:51.400Z,24.00
2022-12-13T03:11:11.311Z,23.35
2022-12-13T03:13:40.811Z,38.45
2022-12-13T03:17:55.486Z,32.55
2022-12-13T03:19:57.004Z,80.97
2022-12-13T03:21:58.442Z,41.30
2022-12-13T03:23:59.881Z,86.45
2022-12-13T03:26:14.869Z,28.90
2022-12-13T03:28:16.439Z,25.17
2022-12-13T03:30:17.924Z,23.05
2022-12-13T03:32:19.374Z,23.17
2022-12-13T03:34:23.018Z,23.48
2022-12-13T03:36:25.349Z,21.38
2022-12-13T03:38:26.892Z,18.58
2022-12-13T03:40:30.128Z,17.83
2022-12-13T03:42:31.655Z,18.98
2022-12-13T03:44:33.124Z,17.35
2022-12-13T03:46:35.068Z,18.17
2022-12-13T03:48:37.030Z,17.92
2022-12-13T03:50:38.545Z,16.80
2022-12-13T03:52:40.000Z,18.92
2022-12-13T03:54:45.352Z,19.50
2022-12-13T03:56:46.971Z,18.08
2022-12-13T03:58:48.406Z,15.32
2022-12-13T04:00:49.892Z,21.23
2022-12-13T04:02:51.477Z,16.85
2022-12-13T04:04:52.955Z,17.55
2022-12-13T04:06:54.396Z,16.60
2022-12-13T04:08:55.914Z,16.60
2022-12-13T04:10:57.411Z,16.45
2022-12-13T04:13:17.571Z,19.00
2022-12-13T04:15:19.059Z,18.15
2022-12-13T04:17:20.582Z,17.25
2022-12-13T04:19:23.574Z,19.70
2022-12-13T04:21:25.624Z,19.77
2022-12-13T04:23:27.059Z,17.67
2022-12-13T04:25:28.462Z,18.90
2022-12-13T04:27:29.966Z,16.70
2022-12-13T04:29:33.794Z,15.48
2022-12-13T04:31:36.441Z,16.75
2022-12-13T04:33:38.029Z,16.73
2022-12-13T04:35:39.507Z,15.82
2022-12-13T04:37:43.441Z,16.25
2022-12-13T04:39:47.934Z,19.25
2022-12-13T04:41:51.722Z,18.52
2022-12-13T04:43:54.227Z,19.55
2022-12-13T04:45:56.451Z,17.45
2022-12-13T04:47:57.926Z,19.50
2022-12-13T04:49:59.433Z,17.52
2022-12-13T04:52:02.503Z,14.88
2022-12-13T04:54:23.654Z,15.55
2022-12-13T04:56:25.507Z,73.47
2022-12-13T04:58:27.303Z,44.30
2022-12-13T05:00:28.762Z,21.05
2022-12-13T05:02:30.259Z,46.33
2022-12-13T05:04:33.135Z,23.63
2022-12-13T05:06:34.994Z,71.00
2022-12-13T05:08:37.836Z,32.80
2022-12-13T05:10:39.453Z,31.55
2022-12-13T05:12:41.021Z,46.25
2022-12-13T05:14:42.496Z,37.03
2022-12-13T05:16:43.954Z,61.92
2022-12-13T05:18:45.517Z,46.33
2022-12-13T05:20:47.002Z,63.58
2022-12-13T05:22:48.451Z,130.20
2022-12-13T05:24:50.022Z,97.72
2022-12-13T05:26:51.748Z,108.95
2022-12-13T05:28:55.821Z,105.20
2022-12-13T05:31:27.277Z,143.27
2022-12-13T05:33:28.755Z,126.05
2022-12-13T05:35:30.190Z,82.00
2022-12-13T05:37:34.889Z,69.15
2022-12-13T05:39:36.826Z,379.63
2022-12-13T05:41:38.353Z,187.00
2022-12-13T05:43:43.136Z,73.28
2022-12-13T05:45:44.964Z,78.70
2022-12-13T05:47:48.448Z,123.13
2022-12-13T05:49:49.974Z,87.93
2022-12-13T05:51:51.526Z,56.38
2022-12-13T05:53:53.556Z,57.97
2022-12-13T05:55:55.122Z,54.75
2022-12-13T05:58:02.248Z,67.38
2022-12-13T06:00:07.573Z,91.55
2022-12-13T06:02:29.141Z,35.97
2022-12-13T06:04:30.881Z,49.80
2022-12-13T06:06:32.398Z,93.35
2022-12-13T06:08:34.243Z,64.38
2022-12-13T06:10:35.800Z,97.57
2022-12-13T06:12:43.332Z,73.40
2022-12-13T06:14:45.635Z,80.35
2022-12-13T06:16:47.120Z,60.60
2022-12-13T06:18:50.509Z,72.80
2022-12-13T06:21:00.658Z,68.18
2022-12-13T06:23:02.112Z,80.65
2022-12-13T06:25:03.793Z,82.75
2022-12-13T06:27:05.370Z,74.80
2022-12-13T06:29:06.786Z,50.58
2022-12-13T06:31:08.383Z,53.33
2022-12-13T06:33:10.920Z,55.95
2022-12-13T06:35:28.566Z,41.35
2022-12-13T06:37:31.214Z,89.82
2022-12-13T06:39:33.779Z,66.00
2022-12-13T06:41:36.392Z,60.80
2022-12-13T06:43:38.200Z,58.40
2022-12-13T06:45:40.754Z,58.17
2022-12-13T06:47:42.368Z,52.88
2022-12-13T06:49:44.590Z,49.72
2022-12-13T06:51:46.403Z,48.83
2022-12-13T06:53:48.156Z,48.35
2022-12-13T06:55:49.599Z,38.30
2022-12-13T06:57:51.758Z,37.65
2022-12-13T06:59:53.292Z,62.42
2022-12-13T07:01:54.763Z,57.00
2022-12-13T07:04:30.329Z,52.60
2022-12-13T07:06:30.492Z,68.10
2022-12-13T07:08:32.087Z,69.93
2022-12-13T07:10:33.922Z,63.17
2022-12-13T07:12:35.369Z,48.40
2022-12-13T07:14:41.051Z,46.05
2022-12-13T07:16:42.933Z,62.35
2022-12-13T07:18:44.796Z,71.38
2022-12-13T07:20:46.453Z,114.07
2022-12-13T07:22:58.364Z,131.50
2022-12-13T07:25:00.373Z,91.00
2022-12-13T07:27:03.171Z,92.57
2022-12-13T07:29:05.036Z,60.38
2022-12-13T07:31:07.949Z,66.28
2022-12-13T07:33:09.980Z,74.10
2022-12-13T07:35:11.414Z,69.28
2022-12-13T07:37:30.002Z,63.03
2022-12-13T07:41:33.891Z,113.43
2022-12-13T07:43:36.160Z,81.90
2022-12-13T07:45:37.606Z,129.27
2022-12-13T07:47:39.039Z,82.25
2022-12-13T07:49:40.788Z,81.43
2022-12-13T07:51:42.210Z,107.70
2022-12-13T07:53:43.661Z,90.95
2022-12-13T07:55:45.086Z,55.25
2022-12-13T07:57:46.549Z,57.63
2022-12-13T07:59:47.953Z,43.25
2022-12-13T08:01:49.492Z,104.57
2022-12-13T08:03:51.185Z,63.65
2022-12-13T08:06:22.032Z,64.53
2022-12-13T08:08:23.685Z,63.33
2022-12-13T08:12:34.456Z,80.55
2022-12-13T08:14:35.874Z,47.33
2022-12-13T08:16:37.384Z,71.18
2022-12-13T08:18:41.963Z,96.57
2022-12-13T08:20:43.432Z,68.30
2022-12-13T08:22:44.893Z,54.90
2022-12-13T08:24:51.129Z,29.88
2022-12-13T08:26:52.573Z,63.67
2022-12-13T08:28:54.119Z,38.95
2022-12-13T08:30:55.653Z,20.52
2022-12-13T08:32:57.807Z,36.47
2022-12-13T08:34:59.295Z,91.88
2022-12-13T08:37:01.426Z,120.95
2022-12-13T08:39:04.655Z,101.40
2022-12-13T08:41:06.759Z,235.18
2022-12-13T08:43:08.199Z,122.13
2022-12-13T08:45:10.273Z,39.80
2022-12-13T08:47:11.833Z,67.55
2022-12-13T08:49:13.393Z,41.03
2022-12-13T08:51:15.626Z,31.95
2022-12-13T08:53:28.225Z,113.32
2022-12-13T08:55:31.529Z,65.70
2022-12-13T08:57:36.845Z,95.55
2022-12-13T08:59:38.331Z,84.40
2022-12-13T09:01:39.884Z,73.32
2022-12-13T09:03:41.367Z,60.70
2022-12-13T09:05:43.591Z,58.78
2022-12-13T09:07:45.012Z,34.78
2022-12-13T09:09:46.546Z,83.63
2022-12-13T09:11:59.123Z,37.42
2022-12-13T09:14:01.758Z,48.58
2022-12-13T09:16:14.198Z,35.28
2022-12-13T09:18:24.824Z,47.42
2022-12-13T09:20:29.789Z,33.15
2022-12-13T09:22:33.365Z,44.50
2022-12-13T09:24:36.493Z,34.78
2022-12-13T09:26:38.740Z,38.88
2022-12-13T09:28:41.084Z,30.77
2022-12-13T09:30:42.515Z,30.92
2022-12-13T09:32:49.684Z,37.08
2022-12-13T09:34:51.258Z,42.00
2022-12-13T09:36:52.793Z,34.60
2022-12-13T09:38:55.727Z,28.08
2022-12-13T09:41:00.940Z,38.10
2022-12-13T09:43:12.941Z,65.68
2022-12-13T09:45:22.624Z,37.85
2022-12-13T09:47:39.142Z,26.00
2022-12-13T09:49:52.193Z,28.00
2022-12-13T09:52:10.535Z,28.27
2022-12-13T09:54:19.125Z,27.98
2022-12-13T09:56:23.754Z,31.95
2022-12-13T09:58:28.728Z,35.08
2022-12-13T10:00:35.430Z,22.92
2022-12-13T10:02:55.540Z,28.90
2022-12-13T10:05:22.213Z,24.77
2022-12-13T10:07:25.312Z,26.55
2022-12-13T10:09:27.163Z,28.02
2022-12-13T10:11:32.436Z,29.77
2022-12-13T10:13:46.368Z,42.38
2022-12-13T10:15:53.294Z,25.85
2022-12-13T10:17:56.024Z,84.18
2022-12-13T10:19:57.741Z,96.32
2022-12-13T10:22:01.937Z,81.50
2022-12-13T10:24:26.496Z,75.45
2022-12-13T10:26:37.620Z,38.95
2022-12-13T10:28:40.641Z,23.45
2022-12-13T10:30:46.388Z,81.43
2022-12-13T10:32:56.105Z,34.70
2022-12-13T10:34:57.773Z,39.15
2022-12-13T10:36:59.671Z,50.90
2022-12-13T10:39:02.305Z,39.72
2022-12-13T10:41:23.711Z,23.23
2022-12-13T10:43:36.148Z,16.20
2022-12-13T10:45:41.233Z,17.58
2022-12-13T10:47:44.774Z,29.08
2022-12-13T10:49:52.354Z,51.63
2022-12-13T10:52:01.797Z,22.00
2022-12-13T10:54:03.392Z,38.38
2022-12-13T10:56:05.673Z,58.53
2022-12-13T10:58:09.829Z,41.47
2022-12-13T11:00:49.315Z,163.60
2022-12-13T11:04:58.337Z,118.47
2022-12-13T11:07:20.044Z,32.92
2022-12-13T11:09:38.729Z,24.33
2022-12-13T11:11:41.048Z,72.43
2022-12-13T11:13:46.680Z,99.15
2022-12-13T11:15:55.397Z,58.65
2022-12-13T11:18:06.492Z,24.83
2022-12-13T11:20:18.304Z,36.65
2022-12-13T11:22:29.261Z,42.33
2022-12-13T11:24:34.034Z,44.83
2022-12-13T11:26:39.312Z,23.65
2022-12-13T11:28:41.093Z,23.75
2022-12-13T11:31:13.536Z,21.90
2022-12-13T11:33:32.805Z,31.42
2022-12-13T11:35:52.814Z,58.58
2022-12-13T11:38:00.427Z,21.48
2022-12-13T11:40:14.208Z,41.15
2022-12-13T11:42:41.223Z,26.15
2022-12-13T11:45:06.884Z,31.52
2022-12-13T11:47:16.804Z,103.30
2022-12-13T11:49:28.198Z,49.63
2022-12-13T11:51:46.603Z,35.45
2022-12-13T11:53:56.198Z,112.57
2022-12-13T11:56:11.022Z,172.85
2022-12-13T11:58:45.809Z,167.60
2022-12-13T12:00:50.931Z,73.43
2022-12-13T12:02:56.777Z,65.32
2022-12-13T12:05:01.102Z,89.93
2022-12-13T12:07:31.849Z,78.05
2022-12-13T12:09:37.241Z,201.07
2022-12-13T12:11:46.339Z,97.03
2022-12-13T12:13:52.976Z,114.05
2022-12-13T12:16:01.635Z,218.23
2022-12-13T12:20:31.753Z,77.78
2022-12-13T12:23:06.879Z,114.47
2022-12-13T12:25:29.106Z,62.00
2022-12-13T12:28:12.321Z,71.22
2022-12-13T12:30:22.480Z,94.43
2022-12-13T12:32:37.563Z,154.43
2022-12-13T12:34:56.914Z,101.55
2022-12-13T12:37:28.454Z,101.25
2022-12-13T12:39:49.834Z,119.82
2022-12-13T12:42:05.814Z,99.72
2022-12-13T12:44:19.142Z,75.75
2022-12-13T12:47:09.288Z,212.60
2022-12-13T12:49:29.747Z,63.38
2022-12-13T12:51:44.550Z,76.05
2022-12-13T12:54:07.812Z,75.45
2022-12-13T12:56:28.785Z,161.88
2022-12-13T12:58:42.069Z,184.10
2022-12-13T13:00:49.743Z,130.65
2022-12-13T13:03:17.207Z,103.93
2022-12-13T13:05:32.727Z,60.55
2022-12-13T13:07:39.639Z,66.60
2022-12-13T13:09:42.494Z,100.03
2022-12-13T13:11:46.342Z,104.55
2022-12-13T13:14:01.852Z,63.25
2022-12-13T13:16:05.316Z,75.65
2022-12-13T13:18:42.890Z,111.53
2022-12-13T13:20:44.371Z,90.22
2022-12-13T13:22:58.558Z,90.13
2022-12-13T13:25:08.342Z,69.45
2022-12-13T13:27:09.905Z,60.05
2022-12-13T13:29:27.260Z,72.35
2022-12-13T13:32:01.167Z,63.92
2022-12-13T13:34:23.463Z,48.95
2022-12-13T13:36:44.708Z,128.02
2022-12-13T13:38:51.687Z,54.90
2022-12-13T13:40:53.214Z,40.50
2022-12-13T13:43:10.022Z,33.17
2022-12-13T13:45:25.026Z,47.47
2022-12-13T13:47:39.135Z,42.42
2022-12-13T13:50:02.477Z,42.42
2022-12-13T13:52:28.437Z,25.35
2022-12-13T13:54:57.556Z,32.20
2022-12-13T13:57:33.397Z,32.92
2022-12-13T14:00:17.517Z,45.72
2022-12-13T14:02:48.531Z,46.58
2022-12-13T14:05:14.684Z,128.93
2022-12-13T14:07:53.291Z,103.13
2022-12-13T14:10:27.252Z,75.00
2022-12-13T14:12:49.154Z,63.63
2022-12-13T14:15:36.298Z,73.13
2022-12-13T14:18:11.874Z,137.45
2022-12-13T14:20:22.365Z,54.80
2022-12-13T14:22:26.461Z,121.60
2022-12-13T14:24:58.747Z,86.43
2022-12-13T14:27:21.851Z,131.88
2022-12-13T14:29:58.378Z,68.75
2022-12-13T14:32:00.972Z,58.38
2022-12-13T14:34:04.820Z,65.40
2022-12-13T14:36:13.419Z,68.68
2022-12-13T14:38:25.115Z,106.40
2022-12-13T14:40:30.617Z,91.05
2022-12-13T14:42:34.243Z,153.65
2022-12-13T14:44:35.786Z,203.30
2022-12-13T14:46:37.266Z,130.20
2022-12-13T14:48:51.086Z,104.15
2022-12-13T14:50:53.179Z,133.65
2022-12-13T14:52:55.865Z,106.57
2022-12-13T14:55:00.287Z,152.27
2022-12-13T14:57:04.552Z,104.20
2022-12-13T14:59:13.382Z,110.32
2022-12-13T15:01:41.442Z,163.93
2022-12-13T15:03:42.963Z,134.90
2022-12-13T15:05:50.991Z,172.65
2022-12-13T15:07:53.276Z,124.55
2022-12-13T15:10:00.840Z,160.07
2022-12-13T15:12:23.449Z,202.85
2022-12-13T15:14:26.663Z,172.82
2022-12-13T15:16:29.477Z,180.13
2022-12-13T15:18:31.075Z,164.57
2022-12-13T15:20:33.475Z,123.10
2022-12-13T15:22:35.126Z,214.15
2022-12-13T15:24:40.963Z,160.05
2022-12-13T15:26:43.268Z,249.52
2022-12-13T15:28:47.031Z,205.73
2022-12-13T15:30:48.752Z,221.70
2022-12-13T15:33:04.747Z,217.05
2022-12-13T15:35:16.957Z,403.63
2022-12-13T15:37:37.191Z,276.27
2022-12-13T15:39:41.682Z,291.95
2022-12-13T15:41:51.313Z,325.08
2022-12-13T15:43:55.931Z,212.07
2022-12-13T15:45:57.644Z,244.63
2022-12-13T15:47:59.457Z,258.13
2022-12-13T15:50:03.697Z,279.77
2022-12-13T15:52:06.802Z,410.95
2022-12-13T15:54:11.040Z,283.95
2022-12-13T15:56:58.766Z,282.05
2022-12-13T15:59:01.357Z,232.90
2022-12-13T16:01:05.433Z,335.40
2022-12-13T16:03:16.287Z,476.40
2022-12-13T16:05:35.382Z,317.67
2022-12-13T16:07:40.170Z,290.67
2022-12-13T16:09:41.702Z,328.88
2022-12-13T16:11:58.685Z,319.55
2022-12-13T16:14:26.575Z,345.70
2022-12-13T16:16:30.567Z,427.33
2022-12-13T16:18:41.175Z,331.50
2022-12-13T16:20:44.013Z,210.70
2022-12-13T16:22:45.980Z,153.52
2022-12-13T16:24:48.838Z,215.88
2022-12-13T16:26:50.464Z,240.30
2022-12-13T16:28:53.646Z,252.98
2022-12-13T16:31:04.182Z,280.52
2022-12-13T16:33:27.354Z,229.23
2022-12-13T16:35:27.053Z,175.25
2022-12-13T16:37:28.554Z,151.80
2022-12-13T16:39:29.996Z,150.25
2022-12-13T16:41:35.632Z,153.95
2022-12-13T16:43:46.238Z,122.07
2022-12-13T16:45:53.288Z,113.18
2022-12-13T16:47:54.995Z,197.77
2022-12-13T16:49:56.511Z,184.38
2022-12-13T16:51:58.114Z,205.48
2022-12-13T16:53:59.584Z,157.13
2022-12-13T16:56:01.501Z,121.35
2022-12-13T16:58:10.193Z,134.95
2022-12-13T17:00:13.137Z,100.43
2022-12-13T17:02:17.863Z,84.40
2022-12-13T17:04:22.503Z,78.70
2022-12-13T17:06:24.914Z,82.45
2022-12-13T17:08:26.431Z,76.63
2022-12-13T17:10:28.369Z,107.38
2022-12-13T17:12:29.825Z,119.65
2022-12-13T17:14:31.230Z,120.28
2022-12-13T17:16:32.961Z,110.07
2022-12-13T17:18:34.410Z,103.70
2022-12-13T17:20:36.409Z,97.25
2022-12-13T17:22:38.136Z,147.95
2022-12-13T17:24:39.959Z,196.30
2022-12-13T17:26:41.621Z,295.40
2022-12-13T17:28:56.514Z,257.02
2022-12-13T17:31:08.889Z,269.13
2022-12-13T17:33:13.327Z,555.10
2022-12-13T17:35:18.332Z,463.92
2022-12-13T17:37:20.925Z,604.47
2022-12-13T17:39:22.406Z,394.42
2022-12-13T17:41:23.996Z,305.38
2022-12-13T17:43:33.833Z,247.80
2022-12-13T17:45:38.925Z,184.05
2022-12-13T17:47:40.499Z,233.10
2022-12-13T17:49:42.130Z,159.63
2022-12-13T17:51:43.774Z,157.35
2022-12-13T17:53:52.973Z,206.60
2022-12-13T17:56:02.097Z,323.83
2022-12-13T18:00:07.084Z,351.63
2022-12-13T18:02:12.386Z,299.38
2022-12-13T18:04:14.503Z,258.40
2022-12-13T18:06:16.219Z,247.77
2022-12-13T18:08:18.531Z,191.38
2022-12-13T18:10:22.573Z,202.60
2022-12-13T18:12:27.927Z,251.02
2022-12-13T18:14:30.344Z,190.57
2022-12-13T18:16:37.942Z,168.52
2022-12-13T18:18:40.831Z,179.75
2022-12-13T18:20:43.817Z,131.93
2022-12-13T18:22:51.146Z,163.45
2022-12-13T18:24:53.110Z,276.75
2022-12-13T18:26:55.230Z,371.85
2022-12-13T18:28:56.846Z,201.82
2022-12-13T18:31:02.065Z,180.00
2022-12-13T18:33:05.472Z,193.90
2022-12-13T18:35:07.439Z,213.13
2022-12-13T18:37:09.076Z,221.25
2022-12-13T18:39:10.790Z,236.05
2022-12-13T18:41:16.767Z,229.68
2022-12-13T18:43:18.786Z,299.83
2022-12-13T18:45:21.291Z,237.48
2022-12-13T18:47:23.045Z,173.80
2022-12-13T18:49:24.730Z,216.85
2022-12-13T18:51:26.877Z,466.92
2022-12-13T18:53:29.449Z,467.02
2022-12-13T18:55:31.064Z,248.20
2022-12-13T18:57:32.646Z,235.38
2022-12-13T18:59:34.403Z,316.08
2022-12-13T19:01:36.170Z,322.45
2022-12-13T19:03:38.967Z,252.45
2022-12-13T19:05:40.890Z,596.88
2022-12-13T19:07:43.269Z,498.65
2022-12-13T19:09:54.858Z,235.05
2022-12-13T19:11:58.658Z,249.48
2022-12-13T19:14:00.355Z,283.08
2022-12-13T19:16:07.977Z,349.85
2022-12-13T19:18:09.803Z,382.95
2022-12-13T19:20:11.693Z,384.60
2022-12-13T19:22:14.617Z,382.55
2022-12-13T19:24:16.308Z,273.10
2022-12-13T19:26:17.992Z,265.45
2022-12-13T19:28:19.892Z,221.35
2022-12-13T19:30:23.755Z,210.85
2022-12-13T19:32:25.456Z,205.70
2022-12-13T19:34:27.103Z,230.10
2022-12-13T19:36:30.363Z,385.67
2022-12-13T19:38:32.687Z,576.13
2022-12-13T19:40:34.617Z,645.38
2022-12-13T19:42:36.248Z,759.10
2022-12-13T19:44:38.061Z,914.25
2022-12-13T19:46:40.329Z,789.30
2022-12-13T19:48:42.006Z,564.33
2022-12-13T19:50:44.431Z,449.55
2022-12-13T19:52:46.450Z,451.42
2022-12-13T19:54:48.097Z,335.63
2022-12-13T19:56:49.961Z,238.45
2022-12-13T19:58:54.288Z,227.75
2022-12-13T20:01:02.099Z,254.25
2022-12-13T20:03:04.132Z,239.88
2022-12-13T20:05:06.182Z,232.95
2022-12-13T20:07:07.648Z,267.80
2022-12-13T20:09:09.221Z,307.45
2022-12-13T20:11:13.926Z,270.30
2022-12-13T20:13:15.506Z,268.25
2022-12-13T20:15:17.165Z,228.77
2022-12-13T20:17:19.360Z,214.45
2022-12-13T20:19:20.989Z,318.42
2022-12-13T20:21:22.676Z,361.10
2022-12-13T20:23:24.866Z,360.35
2022-12-13T20:25:26.673Z,358.50
2022-12-13T20:27:28.286Z,256.48
2022-12-13T20:29:30.058Z,206.50
2022-12-13T20:31:33.938Z,174.30
2022-12-13T20:33:36.101Z,167.88
2022-12-13T20:35:54.263Z,179.38
2022-12-13T20:37:59.769Z,204.75
2022-12-13T20:40:01.333Z,295.67
2022-12-13T20:42:02.912Z,353.00
2022-12-13T20:44:06.986Z,247.43
2022-12-13T20:46:12.996Z,284.08
2022-12-13T20:48:14.577Z,385.38
2022-12-13T20:50:16.211Z,267.42
2022-12-13T20:52:17.730Z,245.60
2022-12-13T20:54:19.178Z,164.50
2022-12-13T20:56:23.842Z,146.57
2022-12-13T20:58:26.069Z,114.80
2022-12-13T21:00:27.658Z,126.20
2022-12-13T21:02:29.203Z,239.30
2022-12-13T21:04:30.830Z,102.88
2022-12-13T21:06:35.475Z,96.97
2022-12-13T21:08:52.152Z,101.43
2022-12-13T21:11:01.882Z,124.13
2022-12-13T21:13:06.421Z,145.02
2022-12-13T21:15:08.440Z,143.77
2022-12-13T21:17:12.025Z,110.32
2022-12-13T21:19:15.965Z,99.43
2022-12-13T21:21:17.404Z,111.55
2022-12-13T21:23:18.810Z,128.02
2022-12-13T21:25:20.326Z,148.57
2022-12-13T21:27:21.805Z,106.60
2022-12-13T21:29:23.675Z,108.53
2022-12-13T21:31:26.295Z,110.95
2022-12-13T21:33:29.334Z,106.47
2022-12-13T21:35:31.186Z,143.07
2022-12-13T21:37:32.653Z,95.07
2022-12-13T21:39:34.163Z,130.60
2022-12-13T21:41:35.823Z,142.40
2022-12-13T21:43:38.914Z,190.48
2022-12-13T21:45:41.716Z,171.98
2022-12-13T21:47:43.317Z,123.65
2022-12-13T21:49:48.597Z,128.10
2022-12-13T21:51:50.393Z,124.55
2022-12-13T21:53:53.147Z,214.38
2022-12-13T21:56:14.605Z,238.52
2022-12-13T21:58:34.737Z,281.38
2022-12-13T22:00:37.290Z,386.25
2022-12-13T22:02:38.974Z,264.95
2022-12-13T22:04:48.752Z,699.55
2022-12-13T22:06:50.220Z,491.08
2022-12-13T22:08:51.667Z,250.35
2022-12-13T22:11:21.593Z,163.15
2022-12-13T22:13:23.348Z,605.47
2022-12-13T22:15:25.207Z,646.03
2022-12-13T22:17:34.574Z,981.80
2022-12-13T22:19:36.390Z,529.08
2022-12-13T22:21:37.845Z,188.88
2022-12-13T22:23:39.334Z,176.63
2022-12-13T22:25:40.804Z,145.18
2022-12-13T22:27:42.314Z,139.77
2022-12-13T22:29:43.906Z,153.73
2022-12-13T22:31:48.733Z,183.75
2022-12-13T22:33:50.633Z,186.70
2022-12-13T22:35:52.066Z,198.95
2022-12-13T22:37:56.639Z,202.73
2022-12-13T22:40:00.288Z,233.77
2022-12-13T22:42:01.853Z,213.88
2022-12-13T22:44:03.462Z,226.65
2022-12-13T22:46:06.480Z,218.20
2022-12-13T22:48:08.251Z,208.05
2022-12-13T22:50:09.732Z,198.43
2022-12-13T22:52:12.134Z,216.50
2022-12-13T22:54:13.914Z,232.10
2022-12-13T22:56:20.339Z,237.63
2022-12-13T22:58:21.869Z,213.05
2022-12-13T23:00:23.506Z,247.27
2022-12-13T23:02:25.081Z,265.73
2022-12-13T23:04:26.824Z,232.82
2022-12-13T23:06:30.464Z,277.38
2022-12-13T23:08:31.963Z,237.27
2022-12-13T23:10:52.232Z,239.95
2022-12-13T23:13:02.493Z,219.77
2022-12-13T23:15:04.959Z,242.00
2022-12-13T23:17:06.616Z,247.18
2022-12-13T23:19:40.231Z,233.10
2022-12-13T23:21:32.234Z,281.77
2022-12-13T23:23:33.992Z,178.77
2022-12-13T23:25:35.700Z,125.45
2022-12-13T23:27:37.150Z,121.93
2022-12-13T23:29:38.645Z,149.15
2022-12-13T23:31:42.581Z,271.38
2022-12-13T23:33:50.173Z,237.30
2022-12-13T23:36:00.574Z,204.73
2022-12-13T23:38:04.258Z,194.90
2022-12-13T23:40:07.173Z,267.23
2022-12-13T23:42:08.851Z,199.65
2022-12-13T23:44:10.289Z,188.65
2022-12-13T23:46:20.560Z,144.13
2022-12-13T23:48:26.752Z,116.60
2022-12-13T23:50:28.525Z,111.63
2022-12-13T23:52:30.041Z,141.05
2022-12-13T23:54:31.726Z,172.50
2022-12-13T23:56:33.722Z,168.57
2022-12-13T23:58:37.548Z,148.18
